createdAt,value
2019-05-30T00:01:14.192Z,21.80
2019-05-30T00:03:58.848Z,21.70
2019-05-30T00:06:43.711Z,21.80
2019-05-30T00:09:22.403Z,21.80
2019-05-30T00:12:02.934Z,21.80
2019-05-30T00:14:45.109Z,22.00
2019-05-30T00:17:25.902Z,22.00
2019-05-30T00:20:09.580Z,21.90
2019-05-30T00:22:54.622Z,21.80
2019-05-30T00:25:37.306Z,21.80
2019-05-30T00:28:20.585Z,21.80
2019-05-30T00:31:04.568Z,21.90
2019-05-30T00:33:46.847Z,21.90
2019-05-30T00:36:30.585Z,21.80
2019-05-30T00:39:13.216Z,21.70
2019-05-30T00:41:54.142Z,21.80
2019-05-30T00:44:36.490Z,21.80
2019-05-30T00:47:18.281Z,22.10
2019-05-30T00:49:58.467Z,22.10
2019-05-30T00:52:41.839Z,22.10
2019-05-30T00:55:20.312Z,22.00
2019-05-30T00:58:02.832Z,21.90
2019-05-30T01:00:44.396Z,21.90
2019-05-30T01:03:27.747Z,21.80
2019-05-30T01:06:07.153Z,21.80
2019-05-30T01:08:50.187Z,22.20
2019-05-30T01:11:33.908Z,22.10
2019-05-30T01:14:14.100Z,22.10
2019-05-30T01:16:57.111Z,22.20
2019-05-30T01:19:36.672Z,22.20
2019-05-30T01:22:19.476Z,22.20
2019-05-30T01:25:01.627Z,22.60
2019-05-30T01:27:42.343Z,22.60
2019-05-30T01:30:22.087Z,22.60
2019-05-30T01:33:03.830Z,22.60
2019-05-30T01:35:45.492Z,22.60
2019-05-30T01:38:27.582Z,22.50
2019-05-30T01:41:08.367Z,22.30
2019-05-30T01:43:49.110Z,22.30
2019-05-30T01:46:27.357Z,22.40
2019-05-30T01:49:06.793Z,22.30
2019-05-30T01:51:49.386Z,22.40
2019-05-30T01:54:32.428Z,22.40
2019-05-30T01:57:13.296Z,22.50
2019-05-30T01:59:56.488Z,22.60
2019-05-30T02:02:35.368Z,22.70
2019-05-30T02:05:16.932Z,22.50
2019-05-30T02:07:56.832Z,22.50
2019-05-30T02:10:39.853Z,22.60
2019-05-30T02:13:18.843Z,22.70
2019-05-30T02:16:05.827Z,22.70
2019-05-30T02:18:47.595Z,22.80
2019-05-30T02:21:29.835Z,22.70
2019-05-30T02:24:12.163Z,22.80
2019-05-30T02:26:57.246Z,22.90
2019-05-30T02:29:37.432Z,22.90
2019-05-30T02:32:16.740Z,23.00
2019-05-30T02:34:58.423Z,23.10
2019-05-30T02:37:38.145Z,23.10
2019-05-30T02:40:19.098Z,23.10
2019-05-30T02:42:58.983Z,23.10
2019-05-30T02:45:41.607Z,23.10
2019-05-30T02:48:26.601Z,23.20
2019-05-30T02:51:10.850Z,23.20
2019-05-30T02:53:52.732Z,23.20
2019-05-30T02:56:35.305Z,23.30
2019-05-30T02:59:16.531Z,23.40
2019-05-30T03:02:01.614Z,23.30
2019-05-30T03:04:44.622Z,23.20
2019-05-30T03:07:28.842Z,23.20
2019-05-30T03:10:11.607Z,23.50
2019-05-30T03:12:50.767Z,23.40
2019-05-30T03:15:30.415Z,23.40
2019-05-30T03:18:14.957Z,23.50
2019-05-30T03:20:57.420Z,23.40
2019-05-30T03:23:42.255Z,23.50
2019-05-30T03:26:24.681Z,23.60
2019-05-30T03:29:09.144Z,23.50
2019-05-30T03:31:54.056Z,23.50
2019-05-30T03:34:38.780Z,23.50
2019-05-30T03:37:28.559Z,23.60
2019-05-30T03:40:03.597Z,23.60
2019-05-30T03:42:46.341Z,23.60
2019-05-30T03:45:32.211Z,23.80
2019-05-30T03:48:15.895Z,23.80
2019-05-30T03:50:59.479Z,23.70
2019-05-30T03:53:42.685Z,23.70
2019-05-30T03:56:28.537Z,23.80
2019-05-30T03:59:39.048Z,23.90
2019-05-30T04:02:56.264Z,23.90
2019-05-30T04:05:19.314Z,23.80
2019-05-30T04:08:00.923Z,23.80
2019-05-30T04:10:44.461Z,23.90
2019-05-30T04:13:56.661Z,24.20
2019-05-30T04:16:38.111Z,24.20
2019-05-30T04:19:25.310Z,24.30
2019-05-30T04:22:07.343Z,24.30
2019-05-30T04:24:47.204Z,24.40
2019-05-30T04:27:35.613Z,24.40
2019-05-30T04:30:14.495Z,24.40
2019-05-30T04:33:16.777Z,24.30
2019-05-30T04:35:51.616Z,24.30
2019-05-30T04:38:33.277Z,24.30
2019-05-30T04:41:15.892Z,24.20
2019-05-30T04:43:58.280Z,24.30
2019-05-30T04:46:40.813Z,24.40
2019-05-30T04:49:25.569Z,24.60
2019-05-30T04:52:10.331Z,24.50
2019-05-30T04:54:50.032Z,24.80
2019-05-30T04:57:30.310Z,24.80
2019-05-30T05:00:17.108Z,24.70
2019-05-30T05:02:59.377Z,24.70
2019-05-30T05:05:43.454Z,24.70
2019-05-30T05:08:26.282Z,24.70
2019-05-30T05:11:16.035Z,24.60
2019-05-30T05:13:59.572Z,24.60
2019-05-30T05:16:42.777Z,24.70
2019-05-30T05:19:26.703Z,24.80
2019-05-30T05:22:07.309Z,24.70
2019-05-30T05:24:50.828Z,24.80
2019-05-30T05:27:32.684Z,25.00
2019-05-30T05:33:16.667Z,24.90
2019-05-30T05:35:58.442Z,24.90
2019-05-30T05:38:44.799Z,25.00
2019-05-30T05:41:28.630Z,25.00
2019-05-30T05:44:10.506Z,25.10
2019-05-30T05:46:52.000Z,25.20
2019-05-30T05:49:39.952Z,25.20
2019-05-30T05:52:26.983Z,25.30
2019-05-30T05:55:06.779Z,25.20
2019-05-30T05:57:50.820Z,25.30
2019-05-30T06:00:33.506Z,25.30
2019-05-30T06:03:18.831Z,25.30
2019-05-30T06:06:05.151Z,25.30
2019-05-30T06:08:47.869Z,25.30
2019-05-30T06:11:29.780Z,25.30
2019-05-30T06:14:09.717Z,25.30
2019-05-30T06:16:55.625Z,25.30
2019-05-30T06:19:46.469Z,25.40
2019-05-30T06:22:24.291Z,25.50
2019-05-30T06:25:08.349Z,25.60
2019-05-30T06:27:51.325Z,25.80
2019-05-30T06:30:34.340Z,25.70
2019-05-30T06:33:15.015Z,25.80
2019-05-30T06:35:58.461Z,26.10
2019-05-30T06:38:45.250Z,26.20
2019-05-30T06:41:29.818Z,26.10
2019-05-30T06:44:10.212Z,26.00
2019-05-30T06:46:51.077Z,25.90
2019-05-30T06:49:32.612Z,25.90
2019-05-30T06:52:17.071Z,25.80
2019-05-30T06:54:57.081Z,25.80
2019-05-30T06:57:42.104Z,25.80
2019-05-30T07:00:21.790Z,25.80
2019-05-30T07:03:05.111Z,25.70
2019-05-30T07:05:46.381Z,25.80
2019-05-30T07:08:39.917Z,25.80
2019-05-30T07:11:18.291Z,25.80
2019-05-30T07:14:02.129Z,25.80
2019-05-30T07:16:43.340Z,25.80
2019-05-30T07:19:25.289Z,25.80
2019-05-30T07:22:05.862Z,25.90
2019-05-30T07:24:47.329Z,25.90
2019-05-30T07:27:32.035Z,25.90
2019-05-30T07:30:16.561Z,26.00
2019-05-30T07:32:57.066Z,25.90
2019-05-30T07:35:37.568Z,26.00
2019-05-30T07:38:19.274Z,26.00
2019-05-30T07:40:59.315Z,25.90
2019-05-30T07:43:42.666Z,25.90
2019-05-30T07:46:23.188Z,25.90
2019-05-30T07:49:04.919Z,25.90
2019-05-30T07:51:45.331Z,25.90
2019-05-30T07:54:24.332Z,25.90
2019-05-30T07:57:04.160Z,25.90
2019-05-30T07:59:43.774Z,26.00
2019-05-30T08:02:24.412Z,26.20
2019-05-30T08:05:22.471Z,26.20
2019-05-30T08:07:47.037Z,26.20
2019-05-30T08:10:25.390Z,26.50
2019-05-30T08:13:09.539Z,26.50
2019-05-30T08:15:50.988Z,26.50
2019-05-30T08:18:31.637Z,26.50
2019-05-30T08:21:13.468Z,26.40
2019-05-30T08:23:53.871Z,26.40
2019-05-30T08:26:36.401Z,26.40
2019-05-30T08:29:19.494Z,26.40
2019-05-30T08:32:01.519Z,26.50
2019-05-30T08:34:44.590Z,26.60
2019-05-30T08:37:26.778Z,26.70
2019-05-30T08:40:06.816Z,26.80
2019-05-30T08:42:46.066Z,26.70
2019-05-30T08:45:25.662Z,26.70
2019-05-30T08:48:06.649Z,26.60
2019-05-30T08:50:47.151Z,26.50
2019-05-30T08:53:26.465Z,26.50
2019-05-30T08:56:09.224Z,26.40
2019-05-30T08:58:50.832Z,26.20
2019-05-30T09:01:31.198Z,26.20
2019-05-30T09:04:59.221Z,26.20
2019-05-30T09:12:27.716Z,26.10
2019-05-30T09:19:11.880Z,26.00
2019-05-30T09:21:55.000Z,25.90
2019-05-30T09:24:35.515Z,26.00
2019-05-30T09:27:16.754Z,26.00
2019-05-30T09:29:59.948Z,25.90
2019-05-30T09:32:43.028Z,25.90
2019-05-30T09:35:22.560Z,26.10
2019-05-30T09:38:03.969Z,26.00
2019-05-30T09:40:43.629Z,25.90
2019-05-30T09:43:25.711Z,25.80
2019-05-30T09:46:08.042Z,25.80
2019-05-30T09:48:51.287Z,25.80
2019-05-30T09:51:36.188Z,25.80
2019-05-30T09:54:18.078Z,25.70
2019-05-30T09:56:59.684Z,25.70
2019-05-30T09:59:48.448Z,25.60
2019-05-30T10:02:33.380Z,25.60
2019-05-30T10:05:14.567Z,25.60
2019-05-30T10:07:56.867Z,25.60
2019-05-30T10:10:37.806Z,25.50
2019-05-30T10:13:23.355Z,25.60
2019-05-30T10:16:07.066Z,25.60
2019-05-30T10:18:50.779Z,25.60
2019-05-30T10:21:33.129Z,25.60
2019-05-30T10:24:17.291Z,25.60
2019-05-30T10:26:59.627Z,25.50
2019-05-30T10:29:45.853Z,25.50
2019-05-30T10:32:29.323Z,25.50
2019-05-30T10:35:11.819Z,25.50
2019-05-30T10:37:52.946Z,25.50
2019-05-30T10:40:37.324Z,25.40
2019-05-30T10:43:15.797Z,25.40
2019-05-30T10:46:00.594Z,25.60
2019-05-30T10:48:50.750Z,25.50
2019-05-30T10:51:31.495Z,25.50
2019-05-30T10:54:11.243Z,25.50
2019-05-30T10:56:56.363Z,25.50
2019-05-30T10:59:38.886Z,25.40
2019-05-30T11:02:24.899Z,25.40
2019-05-30T11:05:03.764Z,25.40
2019-05-30T11:08:05.470Z,25.30
2019-05-30T11:10:46.569Z,25.40
2019-05-30T11:13:32.719Z,25.30
2019-05-30T11:16:17.799Z,25.30
2019-05-30T11:19:01.139Z,25.60
2019-05-30T11:21:43.360Z,25.50
2019-05-30T11:24:27.502Z,25.40
2019-05-30T11:27:17.312Z,25.40
2019-05-30T11:30:01.640Z,25.30
2019-05-30T11:32:48.934Z,25.30
2019-05-30T11:35:28.703Z,25.20
2019-05-30T11:38:08.885Z,25.20
2019-05-30T11:40:51.460Z,25.10
2019-05-30T11:43:34.898Z,25.30
2019-05-30T11:46:18.567Z,25.20
2019-05-30T11:49:06.802Z,25.20
2019-05-30T11:51:51.686Z,25.30
2019-05-30T11:54:32.880Z,25.30
2019-05-30T11:57:20.794Z,25.30
2019-05-30T12:00:04.822Z,25.20
2019-05-30T12:02:48.008Z,25.10
2019-05-30T12:05:31.124Z,25.10
2019-05-30T12:08:13.011Z,25.30
2019-05-30T12:11:01.247Z,25.40
2019-05-30T12:13:41.615Z,25.40
2019-05-30T12:16:23.448Z,25.30
2019-05-30T12:19:09.429Z,25.30
2019-05-30T12:21:55.603Z,25.20
2019-05-30T12:24:37.260Z,25.20
2019-05-30T12:27:20.689Z,25.10
2019-05-30T12:30:10.789Z,25.10
2019-05-30T12:32:54.183Z,25.10
2019-05-30T12:35:37.779Z,25.40
2019-05-30T12:38:20.222Z,25.30
2019-05-30T12:41:06.467Z,25.40
2019-05-30T12:43:47.808Z,25.30
2019-05-30T12:46:27.843Z,25.20
2019-05-30T12:49:11.287Z,25.10
2019-05-30T12:52:18.547Z,25.10
2019-05-30T12:55:10.816Z,25.10
2019-05-30T12:57:52.632Z,25.10
2019-05-30T13:00:33.708Z,25.00
2019-05-30T13:03:18.978Z,25.10
2019-05-30T13:06:03.431Z,25.00
2019-05-30T13:08:49.665Z,25.20
2019-05-30T13:11:32.157Z,25.10
2019-05-30T13:14:15.701Z,25.10
2019-05-30T13:16:55.979Z,25.10
2019-05-30T13:19:39.652Z,24.90
2019-05-30T13:22:26.997Z,25.00
2019-05-30T13:25:10.778Z,25.00
2019-05-30T13:27:51.382Z,24.90
2019-05-30T13:30:41.533Z,25.10
2019-05-30T13:33:24.391Z,25.00
2019-05-30T13:36:07.207Z,24.90
2019-05-30T13:38:47.411Z,24.90
2019-05-30T13:41:30.992Z,24.80
2019-05-30T13:44:15.311Z,24.80
2019-05-30T13:46:56.247Z,24.70
2019-05-30T13:49:36.988Z,24.70
2019-05-30T13:52:17.306Z,24.70
2019-05-30T13:55:05.395Z,24.70
2019-05-30T13:57:51.445Z,24.70
2019-05-30T14:00:36.785Z,24.70
2019-05-30T14:03:19.406Z,24.70
2019-05-30T14:06:03.274Z,24.90
2019-05-30T14:08:50.632Z,24.80
2019-05-30T14:11:33.038Z,24.70
2019-05-30T14:14:15.100Z,24.70
2019-05-30T14:16:58.802Z,24.70
2019-05-30T14:19:51.731Z,24.70
2019-05-30T14:22:34.297Z,24.60
2019-05-30T14:25:15.944Z,24.60
2019-05-30T14:28:00.022Z,24.60
2019-05-30T14:30:46.469Z,24.60
2019-05-30T14:33:28.939Z,24.60
2019-05-30T14:36:26.715Z,24.80
2019-05-30T14:39:11.195Z,24.80
2019-05-30T14:41:54.254Z,24.70
2019-05-30T14:44:37.205Z,24.60
2019-05-30T14:47:55.187Z,24.60
2019-05-30T14:50:41.834Z,24.60
2019-05-30T14:53:29.474Z,24.50
2019-05-30T14:56:13.479Z,24.40
2019-05-30T14:58:53.548Z,24.40
2019-05-30T15:01:38.210Z,24.40
2019-05-30T15:04:19.433Z,24.60
2019-05-30T15:07:05.221Z,24.90
2019-05-30T15:09:43.500Z,24.80
2019-05-30T15:12:31.037Z,24.70
2019-05-30T15:15:18.810Z,24.60
2019-05-30T15:17:59.741Z,24.60
2019-05-30T15:20:48.059Z,24.50
2019-05-30T15:23:29.652Z,24.50
2019-05-30T15:26:31.198Z,24.40
2019-05-30T15:29:14.147Z,24.40
2019-05-30T15:32:13.089Z,24.40
2019-05-30T15:34:52.361Z,24.50
2019-05-30T15:37:49.201Z,24.50
2019-05-30T15:40:29.431Z,24.40
2019-05-30T15:43:17.642Z,24.40
2019-05-30T15:46:09.739Z,24.40
2019-05-30T15:48:52.064Z,24.30
2019-05-30T15:51:38.714Z,24.30
2019-05-30T15:54:23.975Z,24.30
2019-05-30T15:57:06.906Z,24.30
2019-05-30T15:59:48.210Z,24.30
2019-05-30T16:02:30.460Z,24.30
2019-05-30T16:05:08.312Z,24.60
2019-05-30T16:07:54.475Z,24.50
2019-05-30T16:10:36.978Z,24.40
2019-05-30T16:13:21.557Z,24.30
2019-05-30T16:16:04.258Z,24.30
2019-05-30T16:18:48.026Z,24.20
2019-05-30T16:21:39.101Z,24.20
2019-05-30T16:24:24.460Z,24.20
2019-05-30T16:27:11.624Z,24.20
2019-05-30T16:29:51.097Z,24.20
2019-05-30T16:32:33.064Z,24.20
2019-05-30T16:35:20.099Z,24.50
2019-05-30T16:38:02.673Z,24.40
2019-05-30T16:40:44.366Z,24.30
2019-05-30T16:43:28.380Z,24.30
2019-05-30T16:46:14.234Z,24.30
2019-05-30T16:48:58.503Z,24.20
2019-05-30T16:51:41.657Z,24.10
2019-05-30T16:54:27.501Z,24.10
2019-05-30T16:57:08.600Z,24.10
2019-05-30T16:59:51.095Z,24.10
2019-05-30T17:02:32.428Z,24.10
2019-05-30T17:05:13.486Z,24.40
2019-05-30T17:07:58.157Z,24.30
2019-05-30T17:10:40.123Z,24.20
2019-05-30T17:13:25.794Z,24.10
2019-05-30T17:16:22.099Z,24.10
2019-05-30T17:19:08.727Z,24.00
2019-05-30T17:21:49.140Z,24.00
2019-05-30T17:24:32.671Z,24.00
2019-05-30T17:27:12.763Z,24.00
2019-05-30T17:29:55.556Z,24.00
2019-05-30T17:32:39.628Z,24.00
2019-05-30T17:35:24.180Z,24.20
2019-05-30T17:38:04.557Z,24.10
2019-05-30T17:40:49.827Z,24.00
2019-05-30T17:43:29.364Z,24.00
2019-05-30T17:46:09.780Z,23.90
2019-05-30T17:48:52.561Z,24.00
2019-05-30T17:51:36.171Z,23.90
2019-05-30T17:54:18.160Z,23.90
2019-05-30T17:57:03.993Z,23.90
2019-05-30T17:59:47.697Z,23.80
2019-05-30T18:02:28.898Z,23.90
2019-05-30T18:05:20.354Z,23.90
2019-05-30T18:08:05.536Z,23.90
2019-05-30T18:10:53.725Z,23.90
2019-05-30T18:13:31.215Z,23.80
2019-05-30T18:16:11.088Z,23.80
2019-05-30T18:18:54.432Z,23.80
2019-05-30T18:21:36.890Z,23.80
2019-05-30T18:24:17.577Z,23.80
2019-05-30T18:26:58.882Z,23.70
2019-05-30T18:29:42.459Z,23.70
2019-05-30T18:32:25.970Z,23.70
2019-05-30T18:35:10.173Z,23.70
2019-05-30T18:37:51.462Z,24.00
2019-05-30T18:40:38.799Z,23.90
2019-05-30T18:43:24.641Z,23.90
2019-05-30T18:46:05.507Z,23.80
2019-05-30T18:48:48.501Z,23.80
2019-05-30T18:51:30.350Z,23.80
2019-05-30T18:54:11.758Z,23.80
2019-05-30T18:56:54.965Z,23.80
2019-05-30T18:59:37.423Z,23.80
2019-05-30T19:02:19.986Z,24.00
2019-05-30T19:05:01.597Z,24.00
2019-05-30T19:07:46.043Z,24.00
2019-05-30T19:10:26.014Z,23.90
2019-05-30T19:13:06.554Z,23.80
2019-05-30T19:15:48.140Z,23.80
2019-05-30T19:18:30.128Z,23.80
2019-05-30T19:21:14.097Z,23.80
2019-05-30T19:23:56.551Z,23.80
2019-05-30T19:26:37.370Z,23.70
2019-05-30T19:29:17.368Z,23.70
2019-05-30T19:31:58.939Z,23.60
2019-05-30T19:34:39.855Z,23.70
2019-05-30T19:37:24.764Z,23.70
2019-05-30T19:40:07.161Z,23.90
2019-05-30T19:42:58.594Z,23.80
2019-05-30T19:45:39.674Z,23.80
2019-05-30T19:48:22.952Z,23.70
2019-05-30T19:51:06.959Z,23.70
2019-05-30T19:53:46.158Z,23.60
2019-05-30T19:56:29.414Z,23.60
2019-05-30T19:59:12.307Z,23.60
2019-05-30T20:01:56.879Z,23.60
2019-05-30T20:04:40.499Z,23.70
2019-05-30T20:07:22.606Z,23.70
2019-05-30T20:10:02.579Z,23.60
2019-05-30T20:12:45.054Z,24.00
2019-05-30T20:15:24.579Z,23.90
2019-05-30T20:18:08.001Z,23.70
2019-05-30T20:20:57.211Z,23.70
2019-05-30T20:23:47.319Z,23.60
2019-05-30T20:26:17.928Z,23.50
2019-05-30T20:29:00.381Z,23.50
2019-05-30T20:31:43.623Z,23.50
2019-05-30T20:34:24.520Z,23.50
2019-05-30T20:37:08.864Z,23.50
2019-05-30T20:39:51.992Z,23.50
2019-05-30T20:42:39.192Z,23.50
2019-05-30T20:45:21.330Z,23.90
2019-05-30T20:48:04.758Z,23.70
2019-05-30T20:50:44.704Z,23.60
2019-05-30T20:53:26.272Z,23.60
2019-05-30T20:56:07.104Z,23.50
2019-05-30T20:58:48.294Z,23.50
2019-05-30T21:01:30.639Z,23.50
2019-05-30T21:04:13.622Z,23.40
2019-05-30T21:06:57.724Z,23.40
2019-05-30T21:09:37.984Z,23.60
2019-05-30T21:12:36.438Z,23.50
2019-05-30T21:15:04.615Z,23.50
2019-05-30T21:17:48.117Z,23.90
2019-05-30T21:20:28.683Z,23.80
2019-05-30T21:23:09.296Z,23.60
2019-05-30T21:25:51.651Z,23.60
2019-05-30T21:28:31.096Z,23.60
2019-05-30T21:31:14.770Z,23.50
2019-05-30T21:33:58.882Z,23.50
2019-05-30T21:36:39.834Z,23.40
2019-05-30T21:39:21.513Z,23.40
2019-05-30T21:42:04.220Z,23.40
2019-05-30T21:44:44.785Z,23.40
2019-05-30T21:47:29.266Z,23.40
2019-05-30T21:50:11.532Z,23.80
2019-05-30T21:52:54.984Z,23.60
2019-05-30T21:55:38.050Z,23.60
2019-05-30T21:58:18.012Z,23.50
2019-05-30T22:01:34.272Z,23.40
2019-05-30T22:04:15.668Z,23.40
2019-05-30T22:07:02.612Z,23.30
2019-05-30T22:09:45.449Z,23.30
2019-05-30T22:12:29.394Z,23.30
2019-05-30T22:15:09.827Z,23.40
2019-05-30T22:17:52.003Z,23.40
2019-05-30T22:20:36.190Z,23.40
2019-05-30T22:23:18.352Z,23.70
2019-05-30T22:25:57.920Z,23.60
2019-05-30T22:28:42.279Z,23.50
2019-05-30T22:31:23.695Z,23.40
2019-05-30T22:34:06.379Z,23.40
2019-05-30T22:36:46.752Z,23.30
2019-05-30T22:39:27.143Z,23.30
2019-05-30T22:42:09.933Z,23.30
2019-05-30T22:44:52.278Z,23.20
2019-05-30T22:47:34.856Z,23.20
2019-05-30T22:50:16.869Z,23.30
2019-05-30T22:52:58.713Z,23.30
2019-05-30T22:55:37.131Z,23.60
2019-05-30T22:58:16.407Z,23.50
2019-05-30T23:01:00.106Z,23.40
2019-05-30T23:03:41.763Z,23.40
2019-05-30T23:06:25.373Z,23.40
2019-05-30T23:09:08.614Z,23.40
2019-05-30T23:11:49.667Z,23.40
2019-05-30T23:14:34.892Z,23.40
2019-05-30T23:17:17.878Z,23.40
2019-05-30T23:20:02.149Z,23.40
2019-05-30T23:22:42.893Z,23.50
2019-05-30T23:25:22.934Z,23.60
2019-05-30T23:28:02.551Z,23.80
2019-05-30T23:30:45.161Z,23.70
2019-05-30T23:33:30.868Z,23.70
2019-05-30T23:36:10.117Z,23.70
2019-05-30T23:38:51.057Z,23.80
2019-05-30T23:41:32.173Z,24.10
2019-05-30T23:44:17.035Z,24.20
2019-05-30T23:46:57.674Z,24.30
2019-05-30T23:49:40.098Z,24.30
2019-05-30T23:52:22.771Z,24.20
2019-05-30T23:55:05.553Z,24.30
2019-05-30T23:57:48.254Z,24.20
